Puxico, Missouri
Current Conditions -  °F | °C
As of 6:53 AM on Sunday 23 Nov 2014 (Local Time) from KPOF Reporting Station
Overcast Overcast  
Wind Chill: 55°   Ceiling: 1700
Heat Index: 55°   Visibility: 10mi
Dew Point: 49°   Wind: 8mph
Humidity: 80%   Direction: 110°ESE
Pressure: 29.72"   Gusts: NA
Location:  36.95°N, 90.16°W
Report Text: KPOF 231253Z AUTO 11007KT 10SM OVC017 13/09 A2972 RMK AO2 SLP065 T01280094
Loading
Personal Weather Stations






























Interactive Weather Map New forecast layout! Learn more

10-Day Weather Forecast

Advertisements
Track Severe Weather on mobile